Aérodrome :
LOGIN :

S'inscrire | Disclaimer

   EN    FR    IT 

 










Légende :    VFR   VFR Marginal   IFR   IFR Intensif   IFR Très Intensif
Visi : 
Plafond : 
>= 8 km
>= 3000ft
5 à 8 km
1000 à 3000 ft
1500m à 5 km
500 à 1000 ft
800 à 1500m
200 à 500 ft
< 800m
< 200 ft
Symboles :   Orages  Brouillard  Fortes neiges  Fortes précipitations  Vent > 20 kt
SIGMETs :   Divers  Orages  Givrage  Turbulence  Onde Orograph.  Cendres Volcan.







- Altitude de l'aérodrome : 194 ft
- Code IATA : ANE
- Voir les cartes d'approche


LFJR - Angers Marcé

DERNIER METAR :
  • 232200Z AUTO 21010KT 170V230 9999 OVC006 12/11 Q1024

METARs EXPIRÉS :
  • 232130Z AUTO 21011KT 9999 OVC005 12/11 Q1024
  • 232100Z AUTO 21010KT 9999 OVC005 12/11 Q1024
  • 232030Z AUTO 21009KT 9999 OVC006 12/11 Q1024
  • 232000Z AUTO 21009KT 9999 OVC006 12/11 Q1025
  • 231930Z AUTO 22010KT 9999 OVC006 12/11 Q1025

TAF TAF LFJR
Valide du 23 à 15h jusqu'au 24 à 00h UTC


231400Z 2315/2324 22008KT 9999 SCT012 BKN040
BECMG 2315/2318 BKN008
TEMPO 2318/2324 2000 BR BKN002
Pas de NOTAMs connus pour ce terrain.



MET'MAP, la Météo Aéronautique d'un coup d'oeil ! - Copyright ORBIFLY Décembre 2007 - Disclaimer

ORBIFLY MET'MAP TEAM :

Programmation & Développement : Alexandra Zaïnal
Conception & Développement : Baudouin d'Aumeries
Co-Programmation & Développement : Marc-Olivier Méhu
Soutien technique & logistique : Manuel Goepfert

Contact : metmap@orbifly.com




SOURCES & CREDITS :

   NOAA